createdAt,value
2019-04-22T00:00:08.634Z,1004.65
2019-04-22T00:01:14.953Z,1004.64
2019-04-22T00:02:10.887Z,1004.64
2019-04-22T00:03:10.641Z,1004.66
2019-04-22T00:04:09.944Z,1004.63
2019-04-22T00:05:19.123Z,1004.63
2019-04-22T00:06:30.947Z,1004.60
2019-04-22T00:07:29.180Z,1004.58
2019-04-22T00:08:38.431Z,1004.60
2019-04-22T00:09:30.898Z,1004.58
2019-04-22T00:10:34.151Z,1004.55
2019-04-22T00:11:38.451Z,1004.57
2019-04-22T00:12:35.917Z,1004.59
2019-04-22T00:13:39.151Z,1004.58
2019-04-22T00:14:28.345Z,1004.58
2019-04-22T00:15:29.226Z,1004.60
2019-04-22T00:16:37.783Z,1004.57
2019-04-22T00:17:40.159Z,1004.51
2019-04-22T00:18:47.394Z,1004.58
2019-04-22T00:19:38.877Z,1004.53
2019-04-22T00:20:36.520Z,1004.60
2019-04-22T00:21:33.327Z,1004.53
2019-04-22T00:22:32.113Z,1004.53
2019-04-22T00:23:31.708Z,1004.55
2019-04-22T00:24:30.695Z,1004.57
2019-04-22T00:25:34.440Z,1004.52
2019-04-22T00:26:37.889Z,1004.59
2019-04-22T00:27:40.668Z,1004.47
2019-04-22T00:28:41.532Z,1004.51
2019-04-22T00:29:49.402Z,1004.50
2019-04-22T00:30:28.096Z,1004.47
2019-04-22T00:31:29.348Z,1004.41
2019-04-22T00:32:31.793Z,1004.42
2019-04-22T00:33:32.339Z,1004.45
2019-04-22T00:34:30.261Z,1004.43
2019-04-22T00:35:29.337Z,1004.47
2019-04-22T00:36:28.906Z,1004.39
2019-04-22T00:37:34.697Z,1004.43
2019-04-22T00:38:38.675Z,1004.44
2019-04-22T00:39:38.395Z,1004.44
2019-04-22T00:40:35.129Z,1004.41
2019-04-22T00:41:35.780Z,1004.40
2019-04-22T00:42:34.745Z,1004.47
2019-04-22T00:43:36.916Z,1004.39
2019-04-22T00:44:31.801Z,1004.36
2019-04-22T00:45:33.360Z,1004.37
2019-04-22T00:46:31.823Z,1004.41
2019-04-22T00:47:36.722Z,1004.38
2019-04-22T00:48:38.596Z,1004.33
2019-04-22T00:50:32.671Z,1004.42
2019-04-22T00:51:33.734Z,1004.39
2019-04-22T00:52:37.172Z,1004.37
2019-04-22T00:53:37.227Z,1004.36
2019-04-22T00:54:35.754Z,1004.38
2019-04-22T00:55:32.709Z,1004.37
2019-04-22T00:56:28.262Z,1004.38
2019-04-22T00:57:35.539Z,1004.32
2019-04-22T00:58:31.190Z,1004.33
2019-04-22T00:59:29.682Z,1004.35
2019-04-22T01:00:31.294Z,1004.27
2019-04-22T01:01:32.121Z,1004.33
2019-04-22T01:02:34.231Z,1004.32
2019-04-22T01:03:38.637Z,1004.31
2019-04-22T01:04:35.098Z,1004.36
2019-04-22T01:05:37.038Z,1004.28
2019-04-22T01:06:32.975Z,1004.34
2019-04-22T01:07:30.552Z,1004.30
2019-04-22T01:08:43.512Z,1004.35
2019-04-22T01:09:33.031Z,1004.33
2019-04-22T01:10:31.885Z,1004.27
2019-04-22T01:11:52.620Z,1004.28
2019-04-22T01:12:31.935Z,1004.27
2019-04-22T01:13:34.689Z,1004.27
2019-04-22T01:14:31.229Z,1004.36
2019-04-22T01:16:29.676Z,1004.28
2019-04-22T01:17:35.924Z,1004.28
2019-04-22T01:18:28.126Z,1004.25
2019-04-22T01:19:43.847Z,1004.32
2019-04-22T01:20:58.829Z,1004.30
2019-04-22T01:21:36.979Z,1004.33
2019-04-22T01:22:27.077Z,1004.23
2019-04-22T01:23:29.650Z,1004.25
2019-04-22T01:24:26.481Z,1004.24
2019-04-22T01:25:24.957Z,1004.20
2019-04-22T01:26:25.587Z,1004.23
2019-04-22T01:27:20.429Z,1004.24
2019-04-22T01:28:18.019Z,1004.19
2019-04-22T01:29:19.683Z,1004.17
2019-04-22T01:30:19.683Z,1004.18
2019-04-22T01:31:12.343Z,1004.19
2019-04-22T01:32:15.367Z,1004.17
2019-04-22T01:33:16.010Z,1004.17
2019-04-22T01:34:23.362Z,1004.21
2019-04-22T01:35:20.956Z,1004.21
2019-04-22T01:36:25.845Z,1004.21
2019-04-22T01:37:27.009Z,1004.14
2019-04-22T01:38:26.672Z,1004.13
2019-04-22T01:39:33.870Z,1004.16
2019-04-22T01:40:36.929Z,1004.10
2019-04-22T01:42:32.775Z,1004.13
2019-04-22T01:43:50.015Z,1004.08
2019-04-22T01:44:33.193Z,1004.12
2019-04-22T01:45:33.068Z,1004.13
2019-04-22T01:46:36.920Z,1004.16
2019-04-22T01:48:36.614Z,1004.12
2019-04-22T01:49:33.345Z,1004.10
2019-04-22T01:50:32.145Z,1004.04
2019-04-22T01:51:48.275Z,1004.02
2019-04-22T01:52:29.145Z,1004.03
2019-04-22T01:53:37.458Z,1004.00
2019-04-22T01:54:35.373Z,1004.04
2019-04-22T01:55:32.373Z,1004.00
2019-04-22T01:56:33.353Z,1004.02
2019-04-22T01:57:31.737Z,1004.06
2019-04-22T01:58:23.440Z,1003.97
2019-04-22T01:59:25.679Z,1003.98
2019-04-22T02:00:35.946Z,1003.97
2019-04-22T02:01:37.634Z,1003.95
2019-04-22T02:02:35.404Z,1003.97
2019-04-22T02:03:33.367Z,1003.97
2019-04-22T02:04:39.287Z,1003.98
2019-04-22T02:05:30.095Z,1003.99
2019-04-22T02:06:34.862Z,1003.92
2019-04-22T02:07:34.416Z,1003.98
2019-04-22T02:08:40.564Z,1004.00
2019-04-22T02:10:34.669Z,1003.99
2019-04-22T02:11:38.998Z,1003.94
2019-04-22T02:12:33.315Z,1003.98
2019-04-22T02:13:38.229Z,1004.00
2019-04-22T02:14:34.084Z,1003.95
2019-04-22T02:15:31.243Z,1003.92
2019-04-22T02:16:34.267Z,1003.97
2019-04-22T02:17:36.833Z,1003.94
2019-04-22T02:19:37.629Z,1003.89
2019-04-22T02:20:31.600Z,1003.93
2019-04-22T02:21:31.902Z,1003.88
2019-04-22T02:22:50.841Z,1003.88
2019-04-22T02:24:37.706Z,1003.90
2019-04-22T02:25:34.526Z,1003.83
2019-04-22T02:26:35.517Z,1003.90
2019-04-22T02:27:52.418Z,1003.92
2019-04-22T02:28:38.360Z,1003.87
2019-04-22T02:29:34.650Z,1003.83
2019-04-22T02:30:55.734Z,1003.81
2019-04-22T02:31:55.999Z,1003.84
2019-04-22T02:35:55.125Z,1003.81
2019-04-22T02:36:34.025Z,1003.78
2019-04-22T02:37:35.840Z,1003.82
2019-04-22T02:39:36.128Z,1003.76
2019-04-22T02:40:44.392Z,1003.80
2019-04-22T02:41:34.916Z,1003.70
2019-04-22T02:42:52.253Z,1003.77
2019-04-22T02:44:37.423Z,1003.74
2019-04-22T02:45:52.197Z,1003.73
2019-04-22T02:46:52.980Z,1003.71
2019-04-22T02:47:50.274Z,1003.75
2019-04-22T02:49:37.492Z,1003.75
2019-04-22T02:50:37.197Z,1003.76
2019-04-22T02:55:44.277Z,1003.68
2019-04-22T02:56:38.151Z,1003.72
2019-04-22T02:57:39.836Z,1003.66
2019-04-22T02:58:58.352Z,1003.67
2019-04-22T03:00:37.616Z,1003.63
2019-04-22T03:01:39.028Z,1003.63
2019-04-22T03:02:52.593Z,1003.60
2019-04-22T03:03:50.518Z,1003.63
2019-04-22T03:04:35.606Z,1003.62
2019-04-22T03:06:34.830Z,1003.63
2019-04-22T03:07:55.820Z,1003.61
2019-04-22T03:08:41.952Z,1003.54
2019-04-22T03:09:41.069Z,1003.52
2019-04-22T03:12:11.962Z,1003.53
2019-04-22T03:14:38.094Z,1003.50
2019-04-22T03:15:41.162Z,1003.45
2019-04-22T03:16:37.521Z,1003.42
2019-04-22T03:17:51.732Z,1003.45
2019-04-22T03:20:33.939Z,1003.49
2019-04-22T03:23:51.438Z,1003.42
2019-04-22T03:24:36.303Z,1003.46
2019-04-22T03:26:38.995Z,1003.38
2019-04-22T03:27:34.973Z,1003.37
2019-04-22T03:29:44.693Z,1003.35
2019-04-22T03:31:58.206Z,1003.37
2019-04-22T03:33:40.022Z,1003.39
2019-04-22T03:35:55.609Z,1003.30
2019-04-22T03:37:04.486Z,1003.35
2019-04-22T03:37:53.335Z,1003.34
2019-04-22T03:38:58.655Z,1003.39
2019-04-22T03:40:54.808Z,1003.39
2019-04-22T03:42:41.534Z,1003.35
2019-04-22T03:43:43.830Z,1003.40
2019-04-22T03:44:38.448Z,1003.38
2019-04-22T03:45:37.899Z,1003.40
2019-04-22T03:46:43.889Z,1003.44
2019-04-22T03:47:45.320Z,1003.41
2019-04-22T03:48:39.700Z,1003.43
2019-04-22T03:50:28.277Z,1003.41
2019-04-22T03:52:30.998Z,1003.44
2019-04-22T03:55:00.783Z,1003.46
2019-04-22T03:55:38.476Z,1003.45
2019-04-22T03:57:48.922Z,1003.43
2019-04-22T03:58:40.970Z,1003.40
2019-04-22T03:59:46.032Z,1003.41
2019-04-22T04:00:45.509Z,1003.39
2019-04-22T04:01:44.529Z,1003.35
2019-04-22T04:03:39.719Z,1003.38
2019-04-22T04:06:52.431Z,1003.36
2019-04-22T04:07:55.828Z,1003.42
2019-04-22T04:08:53.303Z,1003.41
2019-04-22T04:10:40.209Z,1003.37
2019-04-22T04:11:58.004Z,1003.41
2019-04-22T04:12:38.218Z,1003.34
2019-04-22T04:13:33.764Z,1003.40
2019-04-22T04:15:38.447Z,1003.39
2019-04-22T04:16:39.268Z,1003.35
2019-04-22T04:18:46.731Z,1003.34
2019-04-22T04:19:43.829Z,1003.41
2019-04-22T04:20:36.450Z,1003.39
2019-04-22T04:27:54.061Z,1003.37
2019-04-22T04:30:55.186Z,1003.41
2019-04-22T04:32:55.389Z,1003.36
2019-04-22T04:33:40.682Z,1003.37
2019-04-22T04:34:53.872Z,1003.43
2019-04-22T04:35:43.032Z,1003.35
2019-04-22T04:36:37.118Z,1003.36
2019-04-22T04:39:51.195Z,1003.32
2019-04-22T04:40:31.499Z,1003.43
2019-04-22T04:41:42.801Z,1003.35
2019-04-22T04:42:43.152Z,1003.41
2019-04-22T04:43:50.522Z,1003.37
2019-04-22T04:44:59.246Z,1003.39
2019-04-22T04:45:46.162Z,1003.39
2019-04-22T04:49:43.895Z,1003.44
2019-04-22T04:50:38.329Z,1003.45
2019-04-22T04:51:43.969Z,1003.41
2019-04-22T04:53:31.803Z,1003.41
2019-04-22T04:54:44.432Z,1003.44
2019-04-22T04:55:44.209Z,1003.43
2019-04-22T04:56:44.524Z,1003.45
2019-04-22T04:57:43.533Z,1003.39
2019-04-22T04:58:46.266Z,1003.43
2019-04-22T04:59:57.724Z,1003.48
2019-04-22T05:01:39.757Z,1003.44
2019-04-22T05:02:44.767Z,1003.45
2019-04-22T05:03:49.910Z,1003.41
2019-04-22T05:04:53.271Z,1003.42
2019-04-22T05:05:35.310Z,1003.48
2019-04-22T05:07:48.649Z,1003.45
2019-04-22T05:10:56.658Z,1003.45
2019-04-22T05:11:52.101Z,1003.42
2019-04-22T05:13:39.646Z,1003.48
2019-04-22T05:14:34.711Z,1003.45
2019-04-22T05:15:34.999Z,1003.45
2019-04-22T05:17:41.236Z,1003.44
2019-04-22T05:18:37.704Z,1003.45
2019-04-22T05:21:50.632Z,1003.51
2019-04-22T05:22:34.079Z,1003.48
2019-04-22T05:23:40.491Z,1003.47
2019-04-22T05:24:51.866Z,1003.40
2019-04-22T05:25:26.949Z,1003.44
2019-04-22T05:26:32.595Z,1003.47
2019-04-22T05:27:34.247Z,1003.41
2019-04-22T05:28:31.790Z,1003.45
2019-04-22T05:29:36.257Z,1003.49
2019-04-22T05:30:39.544Z,1003.35
2019-04-22T05:31:52.390Z,1003.39
2019-04-22T05:32:37.061Z,1003.39
2019-04-22T05:33:32.078Z,1003.37
2019-04-22T05:34:29.153Z,1003.43
2019-04-22T05:35:32.452Z,1003.41
2019-04-22T05:36:38.078Z,1003.40
2019-04-22T05:38:33.307Z,1003.48
2019-04-22T05:39:29.722Z,1003.47
2019-04-22T05:41:30.634Z,1003.51
2019-04-22T05:42:23.463Z,1003.44
2019-04-22T05:43:29.143Z,1003.44
2019-04-22T05:44:32.898Z,1003.48
2019-04-22T05:45:24.983Z,1003.45
2019-04-22T05:46:28.324Z,1003.42
2019-04-22T05:47:26.249Z,1003.44
2019-04-22T05:48:37.336Z,1003.51
2019-04-22T05:49:41.562Z,1003.43
2019-04-22T05:50:24.323Z,1003.50
2019-04-22T05:51:31.422Z,1003.55
2019-04-22T05:52:26.627Z,1003.58
2019-04-22T05:53:31.281Z,1003.44
2019-04-22T05:54:28.975Z,1003.45
2019-04-22T05:55:32.398Z,1003.41
2019-04-22T05:56:32.820Z,1003.42
2019-04-22T05:57:35.260Z,1003.44
2019-04-22T05:58:33.902Z,1003.46
2019-04-22T05:59:36.154Z,1003.38
2019-04-22T06:00:59.996Z,1003.41
2019-04-22T06:01:38.818Z,1003.47
2019-04-22T06:02:39.756Z,1003.48
2019-04-22T06:03:35.303Z,1003.47
2019-04-22T06:04:29.692Z,1003.48
2019-04-22T06:05:32.917Z,1003.39
2019-04-22T06:06:39.935Z,1003.41
2019-04-22T06:07:26.400Z,1003.40
2019-04-22T06:08:24.183Z,1003.36
2019-04-22T06:09:30.607Z,1003.39
2019-04-22T06:10:34.398Z,1003.36
2019-04-22T06:12:23.402Z,1003.33
2019-04-22T06:13:23.334Z,1003.39
2019-04-22T06:14:27.866Z,1003.32
2019-04-22T06:15:30.098Z,1003.36
2019-04-22T06:16:32.007Z,1003.39
2019-04-22T06:17:37.991Z,1003.36
2019-04-22T06:18:27.246Z,1003.36
2019-04-22T06:19:24.761Z,1003.38
2019-04-22T06:20:32.353Z,1003.41
2019-04-22T06:21:35.752Z,1003.41
2019-04-22T06:22:37.529Z,1003.36
2019-04-22T06:23:36.118Z,1003.42
2019-04-22T06:24:32.463Z,1003.42
2019-04-22T06:25:39.531Z,1003.41
2019-04-22T06:26:37.556Z,1003.42
2019-04-22T06:28:35.291Z,1003.40
2019-04-22T06:29:31.985Z,1003.43
2019-04-22T06:30:28.397Z,1003.42
2019-04-22T06:31:36.923Z,1003.37
2019-04-22T06:32:42.508Z,1003.35
2019-04-22T06:33:34.590Z,1003.43
2019-04-22T06:34:29.785Z,1003.32
2019-04-22T06:36:29.525Z,1003.37
2019-04-22T06:37:55.308Z,1003.38
2019-04-22T06:38:34.047Z,1003.26
2019-04-22T06:41:34.614Z,1003.36
2019-04-22T06:42:28.759Z,1003.27
2019-04-22T06:43:33.828Z,1003.24
2019-04-22T06:44:29.578Z,1003.20
2019-04-22T06:45:32.378Z,1003.22
2019-04-22T06:47:43.867Z,1003.20
2019-04-22T06:49:33.444Z,1003.23
2019-04-22T06:50:32.842Z,1003.20
2019-04-22T06:52:49.669Z,1003.25
2019-04-22T06:53:30.106Z,1003.23
2019-04-22T06:54:28.191Z,1003.25
2019-04-22T06:55:23.293Z,1003.24
2019-04-22T06:56:27.596Z,1003.22
2019-04-22T06:57:30.543Z,1003.22
2019-04-22T06:58:28.929Z,1003.25
2019-04-22T06:59:42.690Z,1003.20
2019-04-22T07:00:32.344Z,1003.30
2019-04-22T07:01:30.120Z,1003.19
2019-04-22T07:02:32.057Z,1003.32
2019-04-22T07:04:31.428Z,1003.23
2019-04-22T07:05:27.554Z,1003.24
2019-04-22T07:07:25.216Z,1003.19
2019-04-22T07:09:02.415Z,1003.23
2019-04-22T07:09:40.154Z,1003.22
2019-04-22T07:11:27.812Z,1003.25
2019-04-22T07:12:29.048Z,1003.23
2019-04-22T07:13:27.415Z,1003.22
2019-04-22T07:14:22.360Z,1003.20
2019-04-22T07:15:42.386Z,1003.15
2019-04-22T07:16:31.957Z,1003.19
2019-04-22T07:17:34.375Z,1003.10
2019-04-22T07:18:33.000Z,1003.13
2019-04-22T07:19:28.102Z,1003.18
2019-04-22T07:20:30.399Z,1003.17
2019-04-22T07:22:31.162Z,1003.14
2019-04-22T07:23:28.436Z,1003.14
2019-04-22T07:25:23.535Z,1003.10
2019-04-22T07:26:25.222Z,1003.05
2019-04-22T07:27:29.271Z,1003.10
2019-04-22T07:28:23.386Z,1003.06
2019-04-22T07:29:25.106Z,1003.04
2019-04-22T07:30:26.249Z,1003.09
2019-04-22T07:31:32.542Z,1003.09
2019-04-22T07:33:36.192Z,1003.09
2019-04-22T07:34:49.902Z,1003.08
2019-04-22T07:37:38.856Z,1003.08
2019-04-22T07:38:26.783Z,1003.14
2019-04-22T07:39:29.747Z,1003.07
2019-04-22T07:40:36.651Z,1003.16
2019-04-22T07:41:28.824Z,1003.10
2019-04-22T07:42:32.563Z,1003.04
2019-04-22T07:43:41.829Z,1003.11
2019-04-22T07:44:31.243Z,1003.13
2019-04-22T07:45:29.634Z,1003.10
2019-04-22T07:46:24.249Z,1003.09
2019-04-22T07:47:35.924Z,1003.11
2019-04-22T07:48:35.695Z,1003.16
2019-04-22T07:49:35.245Z,1003.12
2019-04-22T07:50:43.043Z,1003.11
2019-04-22T07:51:27.124Z,1003.06
2019-04-22T07:52:32.001Z,1003.10
2019-04-22T07:54:26.309Z,1003.13
2019-04-22T07:55:29.535Z,1003.09
2019-04-22T07:56:24.366Z,1003.09
2019-04-22T07:57:32.829Z,1003.04
2019-04-22T07:58:28.913Z,1003.05
2019-04-22T07:59:30.630Z,1003.08
2019-04-22T08:00:29.027Z,1003.10
2019-04-22T08:01:26.422Z,1003.07
2019-04-22T08:02:34.116Z,1003.02
2019-04-22T08:03:53.300Z,1003.07
2019-04-22T08:06:46.027Z,1003.03
2019-04-22T08:07:30.470Z,1003.04
2019-04-22T08:09:27.744Z,1003.05
2019-04-22T08:10:38.362Z,1003.01
2019-04-22T08:12:36.212Z,1003.12
2019-04-22T08:12:36.567Z,1003.01
2019-04-22T08:13:17.225Z,1003.00
2019-04-22T08:14:31.269Z,1003.11
2019-04-22T08:15:28.020Z,1003.08
2019-04-22T08:16:23.325Z,1003.00
2019-04-22T08:17:51.848Z,1003.00
2019-04-22T08:18:32.892Z,1003.08
2019-04-22T08:19:28.717Z,1003.04
2019-04-22T08:20:28.816Z,1003.06
2019-04-22T08:21:23.745Z,1003.04
2019-04-22T08:22:23.992Z,1002.98
2019-04-22T08:23:33.200Z,1003.03
2019-04-22T08:24:29.035Z,1003.03
2019-04-22T08:25:24.556Z,1003.00
2019-04-22T08:26:30.379Z,1003.07
2019-04-22T08:27:25.219Z,1002.92
2019-04-22T08:28:32.000Z,1003.01
2019-04-22T08:30:33.771Z,1002.97
2019-04-22T08:31:28.673Z,1002.95
2019-04-22T08:32:31.358Z,1002.94
2019-04-22T08:33:29.089Z,1002.93
2019-04-22T08:34:27.489Z,1002.91
2019-04-22T08:35:40.769Z,1002.94
2019-04-22T08:36:58.745Z,1002.96
2019-04-22T08:38:50.404Z,1002.90
2019-04-22T08:39:32.518Z,1002.93
2019-04-22T08:40:36.334Z,1002.99
2019-04-22T08:41:40.159Z,1002.96
2019-04-22T08:42:35.159Z,1002.91
2019-04-22T08:43:39.213Z,1002.88
2019-04-22T08:44:39.157Z,1002.89
2019-04-22T08:45:46.121Z,1002.90
2019-04-22T08:46:40.425Z,1002.92
2019-04-22T08:47:31.007Z,1002.87
2019-04-22T08:48:33.055Z,1002.97
2019-04-22T08:49:30.470Z,1002.87
2019-04-22T08:50:26.822Z,1002.93
2019-04-22T08:51:26.433Z,1002.97
2019-04-22T08:52:28.943Z,1002.90
2019-04-22T08:53:34.314Z,1002.90
2019-04-22T08:54:24.319Z,1002.87
2019-04-22T08:57:34.683Z,1002.97
2019-04-22T08:58:31.720Z,1002.94
2019-04-22T08:59:21.900Z,1002.96
2019-04-22T09:00:34.229Z,1002.94
2019-04-22T09:01:27.350Z,1003.01
2019-04-22T09:03:32.680Z,1002.94
2019-04-22T09:04:16.584Z,1002.95
2019-04-22T09:05:42.316Z,1002.91
2019-04-22T09:07:28.984Z,1002.97
2019-04-22T09:08:26.351Z,1002.97
2019-04-22T09:09:26.831Z,1003.02
2019-04-22T09:10:31.092Z,1003.06
2019-04-22T09:11:35.296Z,1002.98
2019-04-22T09:12:45.685Z,1002.93
2019-04-22T09:13:31.273Z,1002.95
2019-04-22T09:14:31.232Z,1002.98
2019-04-22T09:15:31.101Z,1002.95
2019-04-22T09:16:31.847Z,1003.05
2019-04-22T09:17:30.224Z,1002.99
2019-04-22T09:18:28.447Z,1002.99
2019-04-22T09:19:22.443Z,1002.96
2019-04-22T09:20:29.579Z,1002.97
2019-04-22T09:21:32.696Z,1002.95
2019-04-22T09:22:26.391Z,1002.97
2019-04-22T09:23:32.173Z,1002.92
2019-04-22T09:24:34.178Z,1002.88
2019-04-22T09:25:32.743Z,1002.99
2019-04-22T09:26:33.747Z,1002.90
2019-04-22T09:27:37.140Z,1002.88
2019-04-22T09:28:30.642Z,1002.86
2019-04-22T09:29:32.602Z,1002.87
2019-04-22T09:30:34.323Z,1002.89
2019-04-22T09:31:23.539Z,1003.00
2019-04-22T09:32:26.425Z,1002.88
2019-04-22T09:33:27.131Z,1002.83
2019-04-22T09:34:32.105Z,1002.82
2019-04-22T09:35:31.894Z,1002.80
2019-04-22T09:36:29.662Z,1002.75
2019-04-22T09:37:34.210Z,1002.81
2019-04-22T09:39:30.204Z,1002.76
2019-04-22T09:40:22.318Z,1002.71
2019-04-22T09:41:27.276Z,1002.72
2019-04-22T09:42:39.762Z,1002.70
2019-04-22T09:43:32.128Z,1002.74
2019-04-22T09:44:34.674Z,1002.78
2019-04-22T09:45:23.251Z,1002.81
2019-04-22T09:46:28.309Z,1002.86
2019-04-22T09:47:24.943Z,1002.80
2019-04-22T09:48:30.050Z,1002.86
2019-04-22T09:49:26.721Z,1002.77
2019-04-22T09:50:33.594Z,1002.78
2019-04-22T09:51:25.207Z,1002.78
2019-04-22T09:52:20.653Z,1002.80
2019-04-22T09:53:32.294Z,1002.74
2019-04-22T09:54:30.985Z,1002.85
2019-04-22T09:55:26.498Z,1002.79
2019-04-22T09:56:31.861Z,1002.82
2019-04-22T09:57:24.463Z,1002.69
2019-04-22T09:58:29.574Z,1002.77
2019-04-22T09:59:29.553Z,1002.65
2019-04-22T10:00:34.733Z,1002.72
2019-04-22T10:03:25.997Z,1002.77
2019-04-22T10:04:25.333Z,1002.68
2019-04-22T10:05:27.476Z,1002.78
2019-04-22T10:07:27.143Z,1002.60
2019-04-22T10:08:31.665Z,1002.61
2019-04-22T10:09:42.848Z,1002.66
2019-04-22T10:10:29.977Z,1002.71
2019-04-22T10:12:28.063Z,1002.54
2019-04-22T10:14:28.492Z,1002.54
2019-04-22T10:15:30.747Z,1002.59
2019-04-22T10:16:31.604Z,1002.46
2019-04-22T10:17:25.866Z,1002.48
2019-04-22T10:18:28.979Z,1002.45
2019-04-22T10:19:23.553Z,1002.48
2019-04-22T10:20:29.448Z,1002.46
2019-04-22T10:21:38.678Z,1002.48
2019-04-22T10:23:26.501Z,1002.40
2019-04-22T10:24:19.040Z,1002.60
2019-04-22T10:25:23.202Z,1002.40
2019-04-22T10:26:31.720Z,1002.39
2019-04-22T10:27:26.166Z,1002.48
2019-04-22T10:28:33.455Z,1002.43
2019-04-22T10:29:33.149Z,1002.46
2019-04-22T10:30:33.566Z,1002.45
2019-04-22T10:32:27.054Z,1002.39
2019-04-22T10:33:22.402Z,1002.47
2019-04-22T10:34:11.719Z,1002.32
2019-04-22T10:35:05.052Z,1002.33
2019-04-22T10:35:59.703Z,1002.28
2019-04-22T10:37:03.215Z,1002.37
2019-04-22T10:38:00.727Z,1002.36
2019-04-22T10:39:00.142Z,1002.43
2019-04-22T10:40:03.988Z,1002.35
2019-04-22T10:41:00.825Z,1002.36
2019-04-22T10:41:59.615Z,1002.29
2019-04-22T10:43:01.078Z,1002.38
2019-04-22T10:43:59.581Z,1002.30
2019-04-22T10:45:00.978Z,1002.30
2019-04-22T10:45:59.890Z,1002.33
2019-04-22T10:47:00.053Z,1002.29
2019-04-22T10:48:01.428Z,1002.31
2019-04-22T10:49:00.024Z,1002.32
2019-04-22T10:50:00.654Z,1002.20
2019-04-22T10:51:00.911Z,1002.28
2019-04-22T10:52:00.419Z,1002.31
2019-04-22T10:52:59.508Z,1002.30
2019-04-22T10:53:59.743Z,1002.21
2019-04-22T10:54:59.464Z,1002.17
2019-04-22T10:56:00.843Z,1002.21
2019-04-22T10:56:59.432Z,1002.19
2019-04-22T10:57:59.440Z,1002.21
2019-04-22T10:59:00.535Z,1002.11
2019-04-22T11:00:00.712Z,1002.05
2019-04-22T11:01:00.175Z,1002.08
2019-04-22T11:01:59.408Z,1002.11
2019-04-22T11:03:00.098Z,1002.01
2019-04-22T11:03:59.633Z,1001.96
2019-04-22T11:04:59.367Z,1001.99
2019-04-22T11:05:59.465Z,1001.97
2019-04-22T11:07:03.920Z,1001.96
2019-04-22T11:08:03.137Z,1001.96
2019-04-22T11:09:04.157Z,1001.87
2019-04-22T11:10:18.302Z,1001.91
2019-04-22T11:11:10.665Z,1001.97
2019-04-22T11:12:07.391Z,1001.87
2019-04-22T11:13:00.839Z,1001.83
2019-04-22T11:14:00.107Z,1001.97
2019-04-22T11:15:00.116Z,1001.82
2019-04-22T11:16:00.446Z,1001.88
2019-04-22T11:17:02.210Z,1001.80
2019-04-22T11:17:59.745Z,1001.92
2019-04-22T11:18:59.401Z,1002.08
2019-04-22T11:19:59.530Z,1001.74
2019-04-22T11:20:59.832Z,1001.90
2019-04-22T11:22:08.781Z,1001.75
2019-04-22T11:23:00.614Z,1001.78
2019-04-22T11:24:00.618Z,1001.71
2019-04-22T11:25:01.172Z,1001.71
2019-04-22T11:25:59.656Z,1001.83
2019-04-22T11:26:59.154Z,1001.74
2019-04-22T11:28:00.027Z,1001.69
2019-04-22T11:28:59.407Z,1001.72
2019-04-22T11:29:59.518Z,1001.66
2019-04-22T11:31:00.621Z,1001.62
2019-04-22T11:32:00.121Z,1001.61
2019-04-22T11:33:00.330Z,1001.59
2019-04-22T11:33:59.038Z,1001.60
2019-04-22T11:34:59.018Z,1001.56
2019-04-22T11:35:59.968Z,1001.63
2019-04-22T11:36:59.113Z,1001.61
2019-04-22T11:37:59.218Z,1001.63
2019-04-22T11:39:02.478Z,1001.67
2019-04-22T11:40:06.794Z,1001.73
2019-04-22T11:41:00.043Z,1001.58
2019-04-22T11:42:00.291Z,1001.69
2019-04-22T11:42:59.954Z,1001.55
2019-04-22T11:43:59.154Z,1001.58
2019-04-22T11:44:59.340Z,1001.63
2019-04-22T11:45:59.570Z,1001.51
2019-04-22T11:46:59.231Z,1001.51
2019-04-22T11:47:59.533Z,1001.60
2019-04-22T11:49:00.147Z,1001.51
2019-04-22T11:49:59.747Z,1001.45
2019-04-22T11:51:00.080Z,1001.44
2019-04-22T11:51:59.043Z,1001.49
2019-04-22T11:52:58.866Z,1001.47
2019-04-22T11:53:58.911Z,1001.60
2019-04-22T11:54:58.948Z,1001.45
2019-04-22T11:55:58.785Z,1001.51
2019-04-22T11:56:59.058Z,1001.51
2019-04-22T11:57:58.990Z,1001.46
2019-04-22T11:58:58.772Z,1001.37
2019-04-22T11:59:58.883Z,1001.37
2019-04-22T12:00:59.177Z,1001.37
2019-04-22T12:01:58.715Z,1001.40
2019-04-22T12:02:58.848Z,1001.38
2019-04-22T12:03:59.933Z,1001.28
2019-04-22T12:04:58.697Z,1001.37
2019-04-22T12:05:59.816Z,1001.40
2019-04-22T12:07:00.030Z,1001.31
2019-04-22T12:07:59.284Z,1001.36
2019-04-22T12:08:59.614Z,1001.16
2019-04-22T12:09:59.759Z,1001.28
2019-04-22T12:11:01.923Z,1001.35
2019-04-22T12:11:59.998Z,1001.30
2019-04-22T12:12:59.879Z,1001.30
2019-04-22T12:13:59.998Z,1001.29
2019-04-22T12:14:58.777Z,1001.31
2019-04-22T12:15:58.954Z,1001.22
2019-04-22T12:16:59.423Z,1001.22
2019-04-22T12:17:59.315Z,1001.14
2019-04-22T12:18:58.812Z,1001.26
2019-04-22T12:20:00.103Z,1001.26
2019-04-22T12:20:59.203Z,1001.34
2019-04-22T12:21:59.101Z,1001.23
2019-04-22T12:22:58.993Z,1001.18
2019-04-22T12:23:59.204Z,1001.20
2019-04-22T12:24:58.690Z,1001.20
2019-04-22T12:26:04.216Z,1001.20
2019-04-22T12:26:58.451Z,1001.21
2019-04-22T12:27:59.196Z,1001.13
2019-04-22T12:28:59.295Z,1001.13
2019-04-22T12:29:58.765Z,1000.96
2019-04-22T12:30:59.609Z,1001.07
2019-04-22T12:31:59.649Z,1000.98
2019-04-22T12:32:58.389Z,1000.94
2019-04-22T12:33:59.314Z,1001.04
2019-04-22T12:34:59.648Z,1001.14
2019-04-22T12:35:58.340Z,1001.04
2019-04-22T12:36:58.530Z,1001.12
2019-04-22T12:38:02.656Z,1001.04
2019-04-22T12:38:59.648Z,1000.92
2019-04-22T12:39:58.351Z,1001.10
2019-04-22T12:41:02.803Z,1001.08
2019-04-22T12:42:00.344Z,1001.11
2019-04-22T12:42:59.800Z,1001.02
2019-04-22T12:43:58.973Z,1000.98
2019-04-22T12:44:58.418Z,1000.98
2019-04-22T12:45:58.355Z,1000.97
2019-04-22T12:47:01.703Z,1000.98
2019-04-22T12:47:58.210Z,1000.95
2019-04-22T12:48:58.319Z,1001.00
2019-04-22T12:50:08.957Z,1000.98
2019-04-22T12:50:58.620Z,1000.84
2019-04-22T12:51:58.943Z,1000.91
2019-04-22T12:53:04.772Z,1000.87
2019-04-22T12:53:59.379Z,1000.83
2019-04-22T12:54:58.130Z,1000.86
2019-04-22T12:55:59.504Z,1000.84
2019-04-22T12:56:59.610Z,1000.84
2019-04-22T12:58:00.811Z,1000.77
2019-04-22T12:58:59.304Z,1000.80
2019-04-22T12:59:59.488Z,1000.75
2019-04-22T13:00:58.958Z,1000.78
2019-04-22T13:01:58.623Z,1000.74
2019-04-22T13:02:58.912Z,1000.78
2019-04-22T13:04:03.733Z,1000.74
2019-04-22T13:05:00.343Z,1000.63
2019-04-22T13:05:59.301Z,1000.68
2019-04-22T13:06:58.017Z,1000.88
2019-04-22T13:07:58.002Z,1000.68
2019-04-22T13:08:57.980Z,1000.76
2019-04-22T13:09:59.237Z,1000.62
2019-04-22T13:11:06.087Z,1000.77
2019-04-22T13:11:59.331Z,1000.62
2019-04-22T13:12:58.664Z,1000.54
2019-04-22T13:13:58.986Z,1000.64
2019-04-22T13:14:59.199Z,1000.59
2019-04-22T13:15:59.337Z,1000.66
2019-04-22T13:16:57.898Z,1001.14
2019-04-22T13:18:06.081Z,1000.63
2019-04-22T13:19:01.961Z,1000.63
2019-04-22T13:19:58.407Z,1000.61
2019-04-22T13:20:57.883Z,1000.47
2019-04-22T13:21:58.651Z,1000.55
2019-04-22T13:22:58.845Z,1000.51
2019-04-22T13:23:59.103Z,1000.47
2019-04-22T13:24:57.814Z,1000.46
2019-04-22T13:25:59.038Z,1000.42
2019-04-22T13:26:59.104Z,1000.37
2019-04-22T13:27:57.769Z,1000.42
2019-04-22T13:28:59.014Z,1000.55
2019-04-22T13:29:59.407Z,1000.39
2019-04-22T13:31:01.428Z,1000.44
2019-04-22T13:31:58.562Z,1000.54
2019-04-22T13:32:58.733Z,1000.37
2019-04-22T13:34:01.696Z,1000.37
2019-04-22T13:35:01.553Z,1000.35
2019-04-22T13:35:57.710Z,1000.44
2019-04-22T13:36:58.975Z,1000.33
2019-04-22T13:37:59.241Z,1000.28
2019-04-22T13:38:58.723Z,1000.29
2019-04-22T13:39:58.882Z,1000.28
2019-04-22T13:41:08.284Z,1000.23
2019-04-22T13:42:03.536Z,1000.28
2019-04-22T13:42:58.707Z,1000.31
2019-04-22T13:43:58.101Z,1000.19
2019-04-22T13:44:58.138Z,1000.22
2019-04-22T13:45:58.439Z,1000.24
2019-04-22T13:47:17.039Z,1000.27